createdAt,value
2023-01-13T00:02:50.930Z,21.8
2023-01-13T00:12:52.023Z,21.8
2023-01-13T00:22:53.128Z,21.8
2023-01-13T00:32:54.476Z,21.8
2023-01-13T00:52:57.919Z,21.8
2023-01-13T01:02:59.792Z,21.8
2023-01-13T01:13:01.243Z,21.8
2023-01-13T01:23:02.505Z,21.8
2023-01-13T01:33:03.917Z,21.8
2023-01-13T02:03:08.370Z,21.8
2023-01-13T02:13:09.718Z,21.8
2023-01-13T02:23:11.724Z,21.9
2023-01-13T02:33:13.262Z,21.9
2023-01-13T02:43:14.688Z,21.9
2023-01-13T02:53:16.347Z,21.9
2023-01-13T03:03:18.242Z,21.9
2023-01-13T03:13:19.621Z,21.9
2023-01-13T03:23:21.249Z,21.8
2023-01-13T03:43:24.309Z,21.8
2023-01-13T03:53:25.681Z,21.8
2023-01-13T04:03:27.070Z,21.8
2023-01-13T04:13:29.026Z,21.8
2023-01-13T04:23:30.699Z,21.7
2023-01-13T04:33:32.348Z,21.7
2023-01-13T04:43:34.309Z,21.7
2023-01-13T04:53:35.676Z,21.7
2023-01-13T05:03:37.222Z,21.7
2023-01-13T05:13:39.238Z,21.7
2023-01-13T05:43:44.208Z,21.6
2023-01-13T06:03:47.966Z,21.6
2023-01-13T06:33:52.004Z,21.6
2023-01-13T06:43:53.614Z,21.5
2023-01-13T06:53:55.030Z,21.5
2023-01-13T07:03:56.742Z,21.5
2023-01-13T07:13:58.249Z,21.4
2023-01-13T07:23:59.412Z,21.3
2023-01-13T07:54:03.372Z,21.4
2023-01-13T08:14:05.958Z,21.4
2023-01-13T08:34:09.033Z,21.5
2023-01-13T08:54:12.423Z,21.5
2023-01-13T09:04:14.371Z,21.5
2023-01-13T09:14:16.084Z,21.5
2023-01-13T09:24:17.108Z,21.3
2023-01-13T09:34:18.290Z,21.1
2023-01-13T09:44:19.782Z,21.1
2023-01-13T09:54:20.957Z,21
2023-01-13T10:04:22.024Z,21.1
2023-01-13T10:14:23.799Z,21.2
2023-01-13T10:24:25.073Z,21.2
2023-01-13T10:34:26.324Z,21.2
2023-01-13T10:44:28.176Z,21.1
2023-01-13T10:54:29.665Z,21
2023-01-13T11:04:38.186Z,21
2023-01-13T11:14:39.722Z,20.9
2023-01-13T11:24:41.198Z,20.9
2023-01-13T11:34:42.875Z,20.9
2023-01-13T11:44:44.809Z,20.9
2023-01-13T11:54:45.879Z,20.9
2023-01-13T12:04:46.972Z,21
2023-01-13T12:14:48.656Z,21.1
2023-01-13T12:24:50.677Z,21.1
2023-01-13T12:34:51.873Z,21.2
2023-01-13T12:44:53.574Z,21.2
2023-01-13T12:54:55.414Z,21.3
2023-01-13T13:04:56.693Z,21.3
2023-01-13T13:14:58.366Z,21.3
2023-01-13T13:24:59.876Z,21.4
2023-01-13T13:35:01.116Z,21.4
2023-01-13T13:45:02.339Z,21.4
2023-01-13T13:55:03.957Z,21.4
2023-01-13T14:05:05.216Z,21.5
2023-01-13T14:15:07.004Z,21.5
2023-01-13T14:25:08.762Z,21.5
2023-01-13T14:35:10.423Z,21.5
2023-01-13T14:45:11.835Z,21.5
2023-01-13T14:55:13.417Z,21.5
2023-01-13T15:05:14.558Z,21.5
2023-01-13T15:15:16.482Z,21.5
2023-01-13T15:25:17.672Z,21.5
2023-01-13T15:35:18.865Z,21.5
2023-01-13T15:45:20.106Z,21.5
2023-01-13T15:55:21.400Z,21.5
2023-01-13T16:15:24.936Z,21.5
2023-01-13T16:25:26.676Z,21.5
2023-01-13T16:35:28.075Z,21.5
2023-01-13T16:45:29.637Z,21.5
2023-01-13T16:55:31.441Z,21.5
2023-01-13T17:35:38.618Z,21.6
2023-01-13T18:15:45.475Z,21.6
2023-01-13T18:35:49.272Z,21.6
2023-01-13T18:55:52.453Z,21.6
2023-01-13T19:05:53.830Z,21.6
2023-01-13T19:15:55.897Z,21.6
2023-01-13T19:25:57.698Z,21.6
2023-01-13T19:35:59.736Z,21.6
2023-01-13T19:46:01.006Z,21.6
2023-01-13T19:56:02.819Z,21.6
2023-01-13T20:06:04.244Z,21.6
2023-01-13T20:26:07.627Z,21.6
2023-01-13T20:36:09.327Z,21.6
2023-01-13T20:46:11.332Z,21.6
2023-01-13T20:56:14.508Z,21.6
2023-01-13T21:16:16.168Z,21.6
2023-01-13T21:26:17.266Z,21.6
2023-01-13T21:36:19.163Z,21.6
2023-01-13T21:56:22.406Z,21.6
2023-01-13T22:06:24.365Z,21.6
2023-01-13T22:16:26.337Z,21.6
2023-01-13T22:26:27.931Z,21.6
2023-01-13T22:36:29.615Z,21.6
2023-01-13T22:46:30.954Z,21.6
2023-01-13T22:56:32.626Z,21.6
2023-01-13T23:06:33.867Z,21.6
2023-01-13T23:16:35.400Z,21.6
2023-01-13T23:26:36.557Z,21.6
2023-01-13T23:36:37.999Z,21.6
2023-01-13T23:46:39.655Z,21.6
2023-01-13T23:56:41.734Z,21.6
